Time;durP1;ratioP1;P1;durP2;ratioP2;P2;SDS_P1;SDS_P2;PMS_P1;PMS_P2;Temp;Humidity;BMP_temperature;BMP_pressure;BME280_temperature;BME280_humidity;BME280_pressure;Samples;Min_cycle;Max_cycle;Signal;HPM_P1;HPM_P2
2022/12/30 00:00:40;;;;;;;3.20;1.00;;;9.90;76.40;;;;;;5095181;28;21003;-63
2022/12/30 00:03:07;;;;;;;3.13;1.13;;;9.90;76.50;;;;;;5094998;28;20200;-63
2022/12/30 00:05:34;;;;;;;2.80;1.00;;;10.00;75.40;;;;;;5114502;28;20198;-62
2022/12/30 00:08:01;;;;;;;2.53;1.13;;;10.00;75.50;;;;;;5115391;28;20195;-62
2022/12/30 00:10:28;;;;;;;1.95;0.90;;;10.00;75.60;;;;;;5114715;28;20711;-64
2022/12/30 00:35:08;;;;;;;3.67;1.55;;;10.10;76.80;;;;;;5114184;28;20234;-63
2022/12/30 00:37:35;;;;;;;2.55;1.23;;;10.20;76.80;;;;;;5114589;27;20223;-63
2022/12/30 00:40:02;;;;;;;4.78;1.67;;;10.20;76.80;;;;;;5114288;28;20287;-63
2022/12/30 00:45:16;;;;;;;2.55;1.02;;;10.20;76.80;;;;;;5114269;28;20186;-63
2022/12/30 00:47:44;;;;;;;3.10;1.45;;;10.30;77.00;;;;;;5114268;28;20202;-63
2022/12/30 00:58:27;;;;;;;3.58;1.27;;;10.30;77.10;;;;;;5114243;28;20226;-63
2022/12/30 01:00:56;;;;;;;2.40;1.10;;;10.30;77.00;;;;;;5114032;28;20691;-62
2022/12/30 01:03:23;;;;;;;3.35;1.52;;;10.30;76.80;;;;;;5113646;28;20193;-64
2022/12/30 01:05:50;;;;;;;3.55;1.30;;;10.30;76.70;;;;;;5114360;28;20191;-63
2022/12/30 01:08:18;;;;;;;2.30;1.02;;;10.30;78.00;;;;;;5113844;28;20189;-63
2022/12/30 01:10:45;;;;;;;1.90;0.90;;;10.30;78.90;;;;;;5113950;28;20240;-63
2022/12/30 01:13:12;;;;;;;2.25;1.30;;;10.30;78.60;;;;;;5113654;28;20552;-63
2022/12/30 01:15:40;;;;;;;2.05;1.00;;;10.20;78.80;;;;;;5113859;28;20191;-64
2022/12/30 01:18:09;;;;;;;2.28;0.93;;;10.20;79.00;;;;;;5113277;28;20588;-63
2022/12/30 01:20:37;;;;;;;1.90;0.88;;;10.10;78.70;;;;;;5113963;28;20195;-63
2022/12/30 01:23:05;;;;;;;2.55;0.70;;;10.10;78.50;;;;;;5113008;27;20192;-64
2022/12/30 01:25:32;;;;;;;2.05;0.80;;;10.20;78.60;;;;;;5113524;28;20196;-64
2022/12/30 01:27:59;;;;;;;1.92;0.77;;;10.20;79.50;;;;;;5113430;28;20243;-63
2022/12/30 01:30:27;;;;;;;1.75;0.70;;;10.10;79.50;;;;;;5113517;28;20635;-63
2022/12/30 01:32:54;;;;;;;1.85;0.80;;;10.10;79.70;;;;;;5113112;28;20191;-63
2022/12/30 01:35:23;;;;;;;1.60;0.70;;;10.00;79.20;;;;;;5113589;28;20231;-63
2022/12/30 01:37:50;;;;;;;1.60;0.60;;;10.00;79.20;;;;;;5113108;28;20212;-63
2022/12/30 01:40:18;;;;;;;1.60;0.60;;;9.90;79.60;;;;;;5113459;28;20192;-63
2022/12/30 01:42:45;;;;;;;1.50;0.70;;;9.90;78.90;;;;;;5113271;28;20263;-64
2022/12/30 01:45:20;;;;;;;2.15;0.68;;;9.80;78.60;;;;;;5113335;28;20187;-63
2022/12/30 01:47:53;;;;;;;1.67;0.75;;;9.70;78.10;;;;;;5112599;28;20186;-63
2022/12/30 01:50:28;;;;;;;2.60;0.60;;;9.70;77.50;;;;;;5113536;28;20282;-63
2022/12/30 01:53:02;;;;;;;1.45;0.50;;;9.60;77.60;;;;;;5113262;28;20187;-63
2022/12/30 01:55:34;;;;;;;1.50;0.50;;;9.50;77.60;;;;;;5113084;28;20234;-63
2022/12/30 01:58:06;;;;;;;1.70;0.80;;;9.50;77.80;;;;;;5112690;28;20237;-63
2022/12/30 02:00:33;;;;;;;1.98;0.50;;;9.40;78.00;;;;;;5113085;28;20318;-63
2022/12/30 02:03:00;;;;;;;1.60;0.60;;;9.30;78.10;;;;;;5112585;28;20210;-63
2022/12/30 02:05:33;;;;;;;1.63;0.60;;;9.30;78.40;;;;;;5113057;28;20194;-62
2022/12/30 02:08:07;;;;;;;1.50;0.50;;;9.20;78.50;;;;;;5112724;28;20190;-63
2022/12/30 02:10:37;;;;;;;1.70;0.50;;;9.10;79.00;;;;;;5113014;28;20196;-63
2022/12/30 02:13:05;;;;;;;1.50;0.50;;;9.00;80.00;;;;;;5112604;28;20553;-63
2022/12/30 02:15:46;;;;;;;6.35;1.02;;;9.00;79.50;;;;;;5112899;28;20713;-63
2022/12/30 02:18:22;;;;;;;1.52;0.60;;;8.90;79.50;;;;;;5112197;28;20214;-62
2022/12/30 02:21:31;;;;;;;2.15;0.70;;;8.90;79.60;;;;;;5112954;28;20206;-63
2022/12/30 02:24:33;;;;;;;1.50;0.60;;;8.90;79.60;;;;;;5112346;28;20195;-63
2022/12/30 02:27:12;;;;;;;1.80;0.80;;;8.80;79.60;;;;;;5112718;28;20270;-62
2022/12/30 02:30:03;;;;;;;1.70;0.60;;;8.80;79.70;;;;;;5092418;28;20196;-62
2022/12/30 02:32:45;;;;;;;1.50;0.55;;;8.80;79.90;;;;;;5111381;28;20211;-63
2022/12/30 02:35:21;;;;;;;1.65;0.60;;;8.70;80.60;;;;;;5112377;28;20346;-63
2022/12/30 02:38:00;;;;;;;1.75;0.73;;;8.70;80.00;;;;;;5112475;28;20251;-63
2022/12/30 02:44:36;;;;;;;1.70;0.70;;;8.70;80.40;;;;;;5112195;28;20278;-65
2022/12/30 02:46:13;;;;;;;1.52;0.57;;;8.70;80.60;;;;;;5098046;28;20201;-63
2022/12/30 02:48:47;;;;;;;2.10;0.60;;;8.60;81.60;;;;;;5112378;28;20197;-63
2022/12/30 02:54:02;;;;;;;1.60;0.80;;;8.60;80.90;;;;;;5112546;28;20243;-63
2022/12/30 02:56:29;;;;;;;1.80;0.60;;;8.60;80.70;;;;;;5111958;28;20655;-63
2022/12/30 03:04:42;;;;;;;1.52;0.50;;;8.60;81.40;;;;;;5116128;28;20250;-63
2022/12/30 03:07:19;;;;;;;1.50;0.50;;;8.50;81.40;;;;;;5116648;28;20203;-62
2022/12/30 03:12:50;;;;;;;1.60;0.60;;;8.50;81.80;;;;;;5116691;28;20275;-63
2022/12/30 03:15:22;;;;;;;1.88;0.85;;;8.50;81.90;;;;;;5115895;28;20182;-62
2022/12/30 03:17:50;;;;;;;1.70;0.60;;;8.50;82.20;;;;;;5116573;28;20301;-63
2022/12/30 03:20:22;;;;;;;1.90;0.60;;;8.50;82.40;;;;;;5115886;28;20190;-62
2022/12/30 03:28:27;;;;;;;1.50;0.60;;;8.30;83.30;;;;;;5095881;28;20588;-64
2022/12/30 03:30:59;;;;;;;1.70;0.70;;;8.30;83.50;;;;;;5095633;28;20193;-63
2022/12/30 03:33:27;;;;;;;1.70;0.80;;;8.30;83.90;;;;;;5095473;28;20231;-63
2022/12/30 03:36:00;;;;;;;2.00;0.80;;;8.30;84.20;;;;;;5115878;28;20541;-63
2022/12/30 03:38:33;;;;;;;1.70;0.55;;;8.30;84.20;;;;;;5115866;27;20224;-63
2022/12/30 03:41:05;;;;;;;2.22;0.90;;;8.30;84.40;;;;;;5115786;27;20202;-63
2022/12/30 03:43:34;;;;;;;1.95;0.70;;;8.20;84.60;;;;;;5115743;28;20242;-63
2022/12/30 03:46:01;;;;;;;2.30;1.13;;;8.20;85.40;;;;;;5115304;28;20184;-63
2022/12/30 03:48:28;;;;;;;2.33;0.80;;;8.20;85.50;;;;;;5115925;28;20189;-63
2022/12/30 03:50:57;;;;;;;3.35;1.17;;;8.10;85.90;;;;;;5115328;28;20624;-64
2022/12/30 03:53:24;;;;;;;1.70;0.80;;;8.10;85.80;;;;;;5115712;27;20192;-64
2022/12/30 03:55:52;;;;;;;1.70;0.68;;;8.10;85.60;;;;;;5115250;28;20220;-63
2022/12/30 03:58:20;;;;;;;1.88;0.60;;;8.00;86.60;;;;;;5115601;28;20583;-63
2022/12/30 04:00:47;;;;;;;1.70;0.70;;;8.00;87.10;;;;;;5115311;28;20270;-63
2022/12/30 04:03:14;;;;;;;1.60;0.60;;;7.90;87.30;;;;;;5115560;28;20246;-64
2022/12/30 04:05:41;;;;;;;1.50;0.50;;;7.80;88.30;;;;;;5115244;28;20246;-63
2022/12/30 04:08:10;;;;;;;2.28;0.70;;;7.90;89.20;;;;;;5115624;28;20220;-62
2022/12/30 04:10:37;;;;;;;2.45;0.70;;;7.80;90.00;;;;;;5114516;28;20182;-62
2022/12/30 04:13:04;;;;;;;1.60;0.65;;;7.70;90.10;;;;;;5115476;28;20186;-62
2022/12/30 04:15:32;;;;;;;1.50;0.50;;;7.60;90.20;;;;;;5114976;28;20187;-62
2022/12/30 04:17:59;;;;;;;2.15;0.70;;;7.60;90.60;;;;;;5115137;28;20618;-62
2022/12/30 04:20:26;;;;;;;1.95;0.63;;;7.50;90.70;;;;;;5114946;28;20188;-63
2022/12/30 04:22:57;;;;;;;2.33;0.60;;;7.60;90.80;;;;;;5115240;28;20195;-63
2022/12/30 04:25:26;;;;;;;1.80;0.73;;;7.50;90.90;;;;;;5114742;28;20198;-63
2022/12/30 04:27:53;;;;;;;1.90;0.70;;;7.60;91.00;;;;;;5115094;28;20214;-63
2022/12/30 04:30:20;;;;;;;3.55;1.00;;;7.60;91.00;;;;;;5114931;28;20184;-63
2022/12/30 04:32:47;;;;;;;1.60;0.60;;;7.60;90.80;;;;;;5114991;28;20639;-63
2022/12/30 04:35:14;;;;;;;1.55;0.60;;;7.50;91.10;;;;;;5114295;28;20216;-62
2022/12/30 04:37:42;;;;;;;1.60;0.50;;;7.50;91.40;;;;;;5114828;28;20220;-63
2022/12/30 04:40:10;;;;;;;2.45;1.17;;;7.50;91.30;;;;;;5114577;28;20181;-63
2022/12/30 04:42:39;;;;;;;3.22;1.35;;;7.50;91.50;;;;;;5114775;28;20225;-63
2022/12/30 04:45:07;;;;;;;2.67;1.40;;;7.50;91.40;;;;;;5114461;28;20195;-63
2022/12/30 04:47:34;;;;;;;2.38;1.20;;;7.50;91.30;;;;;;5114830;28;20198;-63
2022/12/30 04:50:02;;;;;;;2.38;1.58;;;7.50;91.10;;;;;;5114230;28;20234;-63
2022/12/30 04:52:29;;;;;;;1.50;0.60;;;7.50;91.30;;;;;;5114529;28;20196;-63
2022/12/30 04:54:56;;;;;;;1.60;0.70;;;7.50;91.40;;;;;;5113872;28;20180;-64
2022/12/30 04:57:23;;;;;;;1.60;0.60;;;7.50;91.40;;;;;;5114585;28;20185;-63
2022/12/30 04:59:52;;;;;;;1.60;0.80;;;7.50;91.50;;;;;;5114469;28;20271;-63
2022/12/30 05:02:19;;;;;;;1.98;0.90;;;7.40;91.60;;;;;;5114673;28;20192;-63
2022/12/30 05:04:46;;;;;;;2.30;1.00;;;7.30;91.90;;;;;;5114025;28;20224;-63
2022/12/30 05:07:13;;;;;;;1.83;0.80;;;7.40;92.00;;;;;;5114678;28;20212;-62
2022/12/30 05:09:40;;;;;;;1.50;0.60;;;7.30;92.30;;;;;;5114041;28;20190;-62
2022/12/30 05:12:08;;;;;;;2.20;0.70;;;7.30;92.50;;;;;;5114435;28;20192;-63
2022/12/30 05:14:36;;;;;;;1.80;0.70;;;7.30;92.60;;;;;;5114075;28;20210;-66
2022/12/30 05:17:04;;;;;;;1.88;0.65;;;7.30;92.70;;;;;;5093945;28;20185;-63
2022/12/30 05:19:31;;;;;;;1.60;0.60;;;7.20;92.70;;;;;;5093713;28;20217;-63
2022/12/30 05:21:58;;;;;;;2.60;0.65;;;7.20;92.90;;;;;;5112122;28;20654;-64
2022/12/30 05:27:10;;;;;;;1.80;0.80;;;7.20;93.40;;;;;;5114153;28;20199;-64
2022/12/30 05:29:37;;;;;;;2.58;1.05;;;7.20;93.60;;;;;;5113376;28;20592;-65
2022/12/30 05:32:06;;;;;;;1.60;0.80;;;7.20;93.70;;;;;;5093426;28;20193;-63
2022/12/30 05:34:33;;;;;;;1.52;0.63;;;7.10;94.00;;;;;;5100364;28;20716;-63
2022/12/30 05:37:00;;;;;;;2.35;0.70;;;7.00;94.40;;;;;;5113778;28;20195;-63
2022/12/30 05:39:27;;;;;;;1.80;1.00;;;6.80;94.90;;;;;;5113550;28;20205;-64
2022/12/30 05:41:54;;;;;;;2.10;0.98;;;6.80;95.50;;;;;;5114073;28;20249;-63
2022/12/30 05:44:22;;;;;;;1.70;0.77;;;6.80;95.60;;;;;;5113355;28;20180;-64
2022/12/30 05:46:49;;;;;;;1.60;0.60;;;6.70;95.80;;;;;;5113359;28;20234;-63
2022/12/30 05:49:18;;;;;;;2.05;0.77;;;6.70;95.90;;;;;;5113585;28;20191;-63
2022/12/30 05:51:45;;;;;;;2.25;0.70;;;6.60;96.20;;;;;;5113284;28;20192;-63
2022/12/30 05:54:12;;;;;;;1.50;0.70;;;6.50;96.50;;;;;;5113434;28;20203;-63
2022/12/30 05:56:39;;;;;;;2.00;1.58;;;6.50;96.50;;;;;;5113149;28;20285;-66
2022/12/30 05:59:07;;;;;;;1.60;0.70;;;6.40;96.40;;;;;;5113217;27;20216;-64
2022/12/30 06:01:34;;;;;;;1.60;0.70;;;6.40;96.40;;;;;;5113338;28;20192;-65
2022/12/30 06:04:01;;;;;;;1.60;0.60;;;6.40;96.30;;;;;;5113366;28;20710;-63
2022/12/30 06:06:30;;;;;;;1.70;0.70;;;6.40;96.20;;;;;;5113413;28;20279;-64
2022/12/30 06:08:57;;;;;;;2.00;1.10;;;6.30;96.00;;;;;;5112118;28;20188;-64
2022/12/30 06:11:24;;;;;;;1.92;1.00;;;6.20;96.40;;;;;;5113302;28;20247;-64
2022/12/30 06:13:52;;;;;;;1.70;0.90;;;6.30;96.60;;;;;;5112331;28;20189;-64
2022/12/30 06:16:19;;;;;;;3.53;1.02;;;6.30;96.30;;;;;;5113449;28;20553;-63
2022/12/30 06:18:46;;;;;;;2.63;1.92;;;6.30;96.10;;;;;;5112707;28;20220;-63
2022/12/30 06:21:13;;;;;;;1.80;1.00;;;6.30;96.10;;;;;;5113130;28;20196;-63
2022/12/30 06:23:42;;;;;;;2.00;1.08;;;6.40;96.10;;;;;;5112810;28;20237;-64
2022/12/30 06:26:09;;;;;;;1.70;0.80;;;6.40;95.80;;;;;;5113119;28;20192;-63
2022/12/30 06:28:36;;;;;;;2.35;0.85;;;6.50;95.60;;;;;;5112720;28;20187;-63
2022/12/30 06:31:04;;;;;;;1.60;0.70;;;6.50;95.40;;;;;;5113048;28;20185;-63
2022/12/30 06:33:31;;;;;;;1.67;0.80;;;6.60;95.10;;;;;;5112367;28;20246;-63
2022/12/30 06:35:59;;;;;;;4.65;0.90;;;6.50;94.60;;;;;;5112738;28;20293;-63
2022/12/30 06:38:26;;;;;;;2.28;0.90;;;6.50;94.40;;;;;;5112755;28;20223;-64
2022/12/30 06:40:55;;;;;;;2.53;0.73;;;6.50;94.10;;;;;;5113101;28;20188;-63
2022/12/30 06:43:22;;;;;;;2.50;0.82;;;6.50;93.90;;;;;;5112593;28;20544;-63
2022/12/30 06:45:50;;;;;;;1.98;0.90;;;6.50;93.80;;;;;;5112347;28;20185;-64
2022/12/30 06:48:18;;;;;;;2.13;0.90;;;6.40;94.10;;;;;;5112717;28;20196;-63
2022/12/30 06:50:46;;;;;;;2.83;1.20;;;6.40;94.10;;;;;;5112453;28;20181;-63
2022/12/30 06:53:13;;;;;;;1.80;0.60;;;6.40;93.70;;;;;;5112758;28;20204;-63
2022/12/30 06:55:42;;;;;;;2.65;1.00;;;6.40;93.60;;;;;;5111975;28;20180;-64
2022/12/30 06:58:11;;;;;;;1.90;1.10;;;6.40;93.70;;;;;;5112568;28;20216;-63
2022/12/30 07:00:38;;;;;;;2.22;1.20;;;6.40;93.70;;;;;;5112403;28;20688;-64
2022/12/30 07:03:05;;;;;;;2.00;1.00;;;6.40;93.70;;;;;;5112323;28;20180;-63
2022/12/30 07:05:32;;;;;;;2.38;1.20;;;6.50;93.80;;;;;;5110709;28;20963;-63
2022/12/30 07:08:00;;;;;;;2.65;1.77;;;6.50;93.50;;;;;;5110855;28;20248;-64
2022/12/30 07:10:27;;;;;;;2.63;1.50;;;6.40;93.20;;;;;;5110495;28;20580;-64
2022/12/30 07:12:54;;;;;;;2.90;1.70;;;6.40;93.10;;;;;;5110711;28;20242;-63
2022/12/30 07:15:23;;;;;;;3.22;1.92;;;6.40;93.00;;;;;;5110919;28;20261;-64
2022/12/30 07:17:50;;;;;;;2.50;1.55;;;6.30;93.20;;;;;;5110391;28;20280;-65
2022/12/30 07:20:18;;;;;;;3.10;1.50;;;6.30;92.90;;;;;;5110623;28;20188;-64
2022/12/30 07:22:45;;;;;;;3.25;2.30;;;6.20;92.40;;;;;;5111010;28;20312;-63
2022/12/30 07:25:13;;;;;;;8.00;4.88;;;6.20;92.50;;;;;;5110558;28;20188;-63
2022/12/30 07:27:40;;;;;;;3.30;1.63;;;6.10;93.00;;;;;;5110326;28;20189;-64
2022/12/30 07:30:09;;;;;;;3.15;1.00;;;6.10;92.90;;;;;;5110190;28;20226;-63
2022/12/30 07:32:38;;;;;;;3.75;1.60;;;6.10;92.90;;;;;;5110565;28;20231;-63
2022/12/30 07:35:07;;;;;;;5.40;2.50;;;6.10;92.60;;;;;;5110142;28;20659;-64
2022/12/30 07:37:35;;;;;;;5.80;3.20;;;6.10;92.60;;;;;;5105568;28;20180;-64
2022/12/30 07:40:02;;;;;;;6.68;2.92;;;6.10;92.60;;;;;;5110112;28;20303;-63
2022/12/30 07:42:30;;;;;;;4.88;3.30;;;6.10;92.50;;;;;;5110696;28;20185;-63
2022/12/30 07:44:57;;;;;;;4.97;2.80;;;6.10;92.70;;;;;;5110475;28;20210;-66
2022/12/30 07:47:24;;;;;;;4.88;2.28;;;6.10;93.00;;;;;;5114405;28;20196;-64
2022/12/30 07:49:53;;;;;;;3.10;1.30;;;6.10;93.20;;;;;;5113865;28;20689;-63
2022/12/30 07:52:20;;;;;;;5.45;2.40;;;6.00;92.70;;;;;;5114335;28;20635;-64
2022/12/30 07:54:47;;;;;;;5.70;3.40;;;6.00;92.90;;;;;;5113733;28;20176;-63
2022/12/30 07:57:14;;;;;;;5.80;3.10;;;5.90;93.40;;;;;;5114298;28;20192;-64
2022/12/30 07:59:41;;;;;;;4.05;3.47;;;5.90;93.50;;;;;;5113678;28;20247;-63
2022/12/30 08:02:09;;;;;;;7.15;3.50;;;5.90;94.00;;;;;;5113982;28;20283;-64
2022/12/30 08:04:36;;;;;;;5.60;3.67;;;5.90;94.10;;;;;;5112731;28;20181;-63
2022/12/30 08:07:05;;;;;;;5.35;3.63;;;5.90;94.00;;;;;;5113881;28;20196;-63
2022/12/30 08:09:32;;;;;;;5.00;3.85;;;5.90;94.20;;;;;;5114303;28;20191;-63
2022/12/30 08:11:59;;;;;;;6.68;4.03;;;5.90;94.50;;;;;;5113565;28;20238;-65
2022/12/30 08:14:27;;;;;;;6.40;3.45;;;5.90;94.60;;;;;;5105378;28;20216;-64
2022/12/30 08:16:54;;;;;;;5.65;3.67;;;6.00;94.80;;;;;;5113431;28;20222;-64
2022/12/30 08:19:21;;;;;;;4.00;2.90;;;6.00;94.60;;;;;;5112931;28;20691;-64
2022/12/30 08:21:48;;;;;;;5.22;3.90;;;5.90;94.90;;;;;;5113749;28;20212;-64
2022/12/30 08:24:16;;;;;;;3.50;2.78;;;5.90;95.20;;;;;;5111903;28;20192;-64
2022/12/30 08:26:43;;;;;;;3.20;1.95;;;6.00;95.60;;;;;;5112001;28;20216;-63
2022/12/30 08:29:11;;;;;;;3.80;2.63;;;6.00;95.60;;;;;;5113268;28;20191;-64
2022/12/30 08:31:37;;;;;;;3.60;2.60;;;6.10;95.60;;;;;;5111589;28;20237;-63
2022/12/30 08:34:05;;;;;;;10.73;6.50;;;6.20;95.90;;;;;;5110867;28;20267;-65
2022/12/30 08:36:32;;;;;;;10.27;6.70;;;6.30;96.10;;;;;;5112884;28;20315;-64
2022/12/30 08:39:03;;;;;;;8.27;5.75;;;6.30;96.30;;;;;;5112583;28;20612;-63
2022/12/30 08:41:34;;;;;;;6.85;6.10;;;6.40;96.30;;;;;;5111645;28;20662;-64
2022/12/30 08:44:03;;;;;;;4.82;2.63;;;6.70;95.50;;;;;;5112918;28;20231;-63
2022/12/30 08:46:31;;;;;;;3.10;1.90;;;6.70;95.60;;;;;;5113177;28;20184;-64
2022/12/30 08:48:59;;;;;;;2.97;2.00;;;6.90;95.50;;;;;;5111559;28;20223;-64
2022/12/30 08:51:28;;;;;;;3.22;2.42;;;7.20;95.70;;;;;;5112550;28;20185;-65
2022/12/30 08:53:57;;;;;;;4.35;2.75;;;7.60;94.50;;;;;;5112239;28;20193;-65
2022/12/30 08:56:27;;;;;;;3.40;1.85;;;8.30;94.00;;;;;;5110073;28;20279;-65
2022/12/30 08:58:57;;;;;;;3.35;2.10;;;9.00;92.20;;;;;;5113426;28;20224;-64
2022/12/30 09:01:26;;;;;;;4.05;2.70;;;9.60;91.50;;;;;;5112668;28;20199;-64
2022/12/30 09:03:57;;;;;;;3.40;2.40;;;10.20;89.10;;;;;;5112139;27;20281;-64
2022/12/30 09:06:26;;;;;;;15.20;3.90;;;10.70;87.70;;;;;;5111933;28;20558;-64
2022/12/30 09:08:53;;;;;;;4.65;3.35;;;11.00;82.00;;;;;;5112597;28;20193;-64
2022/12/30 09:11:22;;;;;;;4.05;2.60;;;11.10;81.40;;;;;;5112318;28;20191;-65
2022/12/30 09:13:50;;;;;;;3.05;1.88;;;11.00;80.10;;;;;;5109655;28;20274;-64
2022/12/30 09:16:21;;;;;;;2.30;1.40;;;10.90;78.60;;;;;;5107631;28;20244;-65
2022/12/30 09:18:49;;;;;;;2.95;1.83;;;10.70;78.60;;;;;;5109692;28;20290;-64
2022/12/30 09:21:17;;;;;;;2.97;1.65;;;10.80;80.80;;;;;;5112300;28;20206;-63
2022/12/30 09:23:44;;;;;;;3.03;1.60;;;11.40;81.40;;;;;;5111631;28;20698;-64
2022/12/30 09:26:15;;;;;;;2.40;1.40;;;12.20;82.50;;;;;;5112180;28;20288;-64
2022/12/30 09:28:42;;;;;;;2.55;1.35;;;12.70;77.20;;;;;;5111598;28;20598;-65
2022/12/30 09:31:09;;;;;;;2.53;1.75;;;13.00;75.20;;;;;;5110706;27;20192;-65
2022/12/30 09:33:38;;;;;;;2.78;1.58;;;12.90;73.20;;;;;;5111515;27;20219;-64
2022/12/30 09:36:05;;;;;;;2.90;1.55;;;12.80;70.50;;;;;;5111346;28;20260;-64
2022/12/30 09:38:32;;;;;;;2.73;1.90;;;12.90;71.30;;;;;;5111833;28;20231;-64
2022/12/30 09:41:06;;;;;;;2.30;1.60;;;13.30;70.00;;;;;;5111026;28;20482;-64
2022/12/30 09:43:37;;;;;;;2.97;1.57;;;13.70;71.80;;;;;;5111877;28;21819;-64
2022/12/30 09:46:38;;;;;;;2.50;1.90;;;14.10;69.50;;;;;;5111503;28;20763;-64
2022/12/30 09:49:26;;;;;;;3.13;1.73;;;14.70;65.70;;;;;;5111253;28;20426;-64
2022/12/30 09:51:59;;;;;;;3.00;1.80;;;15.10;62.80;;;;;;5111569;28;20537;-65
2022/12/30 09:54:30;;;;;;;2.30;1.53;;;15.30;61.10;;;;;;5107905;28;20438;-64
2022/12/30 09:57:30;;;;;;;2.50;1.57;;;15.50;60.40;;;;;;5110542;28;20537;-66
2022/12/30 09:59:56;;;;;;;2.90;1.57;;;15.80;59.90;;;;;;5111005;28;20472;-65
2022/12/30 10:02:27;;;;;;;3.20;1.73;;;16.30;58.00;;;;;;5110316;28;20434;-65
2022/12/30 10:04:57;;;;;;;2.90;1.77;;;16.50;57.80;;;;;;5110455;28;20443;-62
2022/12/30 10:07:33;;;;;;;3.70;1.77;;;16.50;55.00;;;;;;5111125;28;20507;-63
2022/12/30 10:10:04;;;;;;;2.70;1.47;;;16.70;54.70;;;;;;5107031;28;20483;-64
2022/12/30 10:12:44;;;;;;;2.57;1.17;;;17.00;55.10;;;;;;5109716;27;20483;-64
2022/12/30 10:15:34;;;;;;;2.13;1.27;;;17.40;54.30;;;;;;5106608;28;20507;-64
2022/12/30 10:18:16;;;;;;;2.60;1.40;;;17.90;52.40;;;;;;5101851;28;20434;-65
2022/12/30 10:20:53;;;;;;;3.90;2.10;;;17.80;52.10;;;;;;5110763;28;20838;-65
2022/12/30 10:23:37;;;;;;;4.07;2.00;;;18.00;51.20;;;;;;5108903;28;20426;-63
2022/12/30 10:26:15;;;;;;;3.20;2.00;;;18.30;51.20;;;;;;5106840;28;20792;-64
2022/12/30 10:28:47;;;;;;;3.33;1.40;;;18.60;52.00;;;;;;5109326;28;20865;-64
2022/12/30 10:31:19;;;;;;;2.87;1.00;;;18.80;48.70;;;;;;5110768;28;20569;-62
2022/12/30 10:33:49;;;;;;;2.47;1.13;;;18.70;47.50;;;;;;5111811;28;21035;-64
2022/12/30 10:36:22;;;;;;;3.57;1.50;;;18.60;47.70;;;;;;5111496;28;20549;-64
2022/12/30 10:38:50;;;;;;;4.20;2.60;;;18.80;49.80;;;;;;5111019;28;20442;-64
2022/12/30 10:41:32;;;;;;;2.10;1.03;;;19.00;47.40;;;;;;5111432;28;21108;-64
2022/12/30 10:44:09;;;;;;;3.80;1.20;;;19.20;47.90;;;;;;5111495;28;20444;-65
2022/12/30 10:46:50;;;;;;;2.60;1.10;;;19.20;45.30;;;;;;5111474;28;20529;-64
2022/12/30 10:49:52;;;;;;;2.77;1.57;;;19.30;46.80;;;;;;5108324;28;20897;-64
2022/12/30 10:52:21;;;;;;;2.80;1.13;;;19.30;44.00;;;;;;5109176;28;20437;-69
2022/12/30 10:54:53;;;;;;;2.10;1.17;;;19.30;43.70;;;;;;5110787;28;20451;-66
2022/12/30 10:57:24;;;;;;;2.27;1.30;;;19.30;43.10;;;;;;5110825;28;20768;-66
2022/12/30 10:59:55;;;;;;;2.30;1.20;;;19.30;44.20;;;;;;5110707;28;20565;-64
2022/12/30 11:02:27;;;;;;;2.40;1.13;;;19.20;43.50;;;;;;5110922;28;20487;-63
2022/12/30 11:04:53;;;;;;;2.20;0.80;;;19.50;43.80;;;;;;5110933;28;20446;-63
2022/12/30 11:07:22;;;;;;;2.00;0.90;;;19.80;43.70;;;;;;5110200;28;20817;-63
2022/12/30 11:09:50;;;;;;;3.23;1.77;;;19.90;43.30;;;;;;5110265;28;20442;-64
2022/12/30 11:15:17;;;;;;;2.17;0.97;;;20.50;43.30;;;;;;5109033;28;20503;-63
2022/12/30 11:17:48;;;;;;;2.70;1.07;;;20.70;42.10;;;;;;5109834;28;20568;-63
2022/12/30 11:20:30;;;;;;;2.63;1.20;;;21.00;42.30;;;;;;5110791;28;20481;-64
2022/12/30 11:23:01;;;;;;;2.80;1.67;;;21.30;41.60;;;;;;5114314;28;20838;-63
2022/12/30 11:25:33;;;;;;;2.10;1.20;;;21.30;42.00;;;;;;5110199;28;20499;-64
2022/12/30 11:28:02;;;;;;;1.93;0.77;;;21.20;41.30;;;;;;5114990;28;20438;-63
2022/12/30 11:30:32;;;;;;;2.37;1.23;;;21.40;42.20;;;;;;5114218;28;20438;-65
2022/12/30 11:33:02;;;;;;;2.83;1.27;;;21.70;42.80;;;;;;5110388;28;20438;-64
2022/12/30 11:35:39;;;;;;;1.90;0.80;;;21.90;41.30;;;;;;5113734;28;20557;-64
2022/12/30 11:38:28;;;;;;;2.60;0.83;;;22.20;41.50;;;;;;5112745;28;20524;-66
2022/12/30 11:40:56;;;;;;;2.30;1.07;;;22.10;38.80;;;;;;5113373;28;20481;-65
2022/12/30 11:43:24;;;;;;;2.00;0.80;;;21.40;39.10;;;;;;5112473;28;20496;-64
2022/12/30 11:46:02;;;;;;;3.90;2.30;;;21.20;40.10;;;;;;5113378;28;20550;-65
2022/12/30 11:48:34;;;;;;;6.10;2.63;;;21.30;39.40;;;;;;5113699;28;20430;-64
2022/12/30 11:51:05;;;;;;;3.00;1.83;;;21.40;38.90;;;;;;5113440;28;20474;-64
2022/12/30 11:53:37;;;;;;;3.50;1.33;;;21.60;39.40;;;;;;5114289;28;20466;-63
2022/12/30 11:56:07;;;;;;;3.97;1.17;;;21.60;39.40;;;;;;5108329;28;20444;-63
2022/12/30 11:58:36;;;;;;;2.00;0.97;;;21.60;39.50;;;;;;5113927;28;20524;-63
2022/12/30 12:01:06;;;;;;;2.50;1.30;;;21.60;38.90;;;;;;5113352;28;20470;-63
2022/12/30 12:03:48;;;;;;;2.70;1.20;;;21.30;38.90;;;;;;5112597;28;20426;-64
2022/12/30 12:06:15;;;;;;;1.80;0.80;;;20.90;39.50;;;;;;5111236;28;20487;-63
2022/12/30 12:08:53;;;;;;;2.17;0.97;;;20.50;40.00;;;;;;5113247;28;20442;-64
2022/12/30 12:11:24;;;;;;;2.50;0.93;;;20.20;40.20;;;;;;5110433;28;20471;-65
2022/12/30 12:16:55;;;;;;;2.33;1.00;;;19.40;41.00;;;;;;5113451;27;20430;-65
2022/12/30 12:19:30;;;;;;;2.20;1.20;;;18.70;41.90;;;;;;5109411;28;20466;-66
2022/12/30 12:22:02;;;;;;;2.10;0.90;;;18.10;43.20;;;;;;5113227;28;20452;-65
2022/12/30 12:24:37;;;;;;;2.00;0.80;;;17.80;44.20;;;;;;5109959;28;20469;-65
2022/12/30 12:27:11;;;;;;;2.40;1.27;;;17.50;44.60;;;;;;5112761;28;20519;-65
2022/12/30 12:29:38;;;;;;;2.40;0.90;;;17.30;45.00;;;;;;5109149;28;20438;-65
2022/12/30 12:32:37;;;;;;;3.30;1.37;;;17.30;44.70;;;;;;5112740;28;20470;-65
2022/12/30 12:35:10;;;;;;;2.80;0.90;;;17.50;45.60;;;;;;5111008;28;20507;-65
2022/12/30 12:37:52;;;;;;;3.40;1.40;;;17.80;45.40;;;;;;5111305;28;20525;-65
2022/12/30 12:40:55;;;;;;;2.07;0.97;;;17.90;44.60;;;;;;5113727;28;20477;-65
2022/12/30 12:43:26;;;;;;;2.30;0.93;;;18.00;44.20;;;;;;5112878;28;20487;-66
2022/12/30 12:46:19;;;;;;;2.67;1.17;;;18.10;44.00;;;;;;5113726;28;20434;-64
2022/12/30 12:49:13;;;;;;;2.20;1.00;;;18.00;42.60;;;;;;5113293;28;20918;-65
2022/12/30 12:51:51;;;;;;;1.90;0.70;;;17.80;43.70;;;;;;5113220;28;20438;-65
2022/12/30 12:54:50;;;;;;;2.27;1.30;;;17.60;43.70;;;;;;5113273;28;21017;-65
2022/12/30 12:57:33;;;;;;;1.80;0.97;;;17.30;44.00;;;;;;5097277;28;20901;-65
2022/12/30 13:00:09;;;;;;;2.70;1.30;;;16.90;44.70;;;;;;5113204;28;20804;-65
2022/12/30 13:03:15;;;;;;;5.03;1.97;;;16.80;45.30;;;;;;5109683;28;20434;-63
2022/12/30 13:05:52;;;;;;;3.20;1.10;;;16.80;46.60;;;;;;5112432;28;20481;-64
2022/12/30 13:08:46;;;;;;;2.30;1.27;;;16.70;46.00;;;;;;5109393;28;20952;-64
2022/12/30 13:11:19;;;;;;;4.20;1.83;;;16.60;46.70;;;;;;5113197;28;20846;-63
2022/12/30 13:13:54;;;;;;;2.20;1.30;;;16.50;46.00;;;;;;5113290;28;20465;-63
2022/12/30 13:16:27;;;;;;;2.90;1.60;;;16.40;46.20;;;;;;5108670;28;20476;-64
2022/12/30 13:18:57;;;;;;;2.40;1.37;;;16.20;46.70;;;;;;5111378;28;20504;-64
2022/12/30 13:21:26;;;;;;;2.57;1.33;;;15.80;47.60;;;;;;5109926;28;20897;-65
2022/12/30 13:23:57;;;;;;;2.77;1.00;;;15.60;47.60;;;;;;5108508;28;20473;-66
2022/12/30 13:26:26;;;;;;;4.50;2.70;;;15.40;48.20;;;;;;5112665;28;20432;-64
2022/12/30 13:28:57;;;;;;;3.50;1.53;;;15.40;48.40;;;;;;5111762;28;20434;-65
2022/12/30 13:31:38;;;;;;;2.70;1.83;;;15.30;48.70;;;;;;5108495;28;20472;-65
2022/12/30 13:34:19;;;;;;;2.67;1.30;;;15.20;48.60;;;;;;5111759;27;20437;-65
2022/12/30 13:36:55;;;;;;;2.60;1.80;;;15.00;48.60;;;;;;5110161;28;20457;-64
2022/12/30 13:39:39;;;;;;;2.47;1.57;;;14.60;49.40;;;;;;5111206;28;20434;-65
2022/12/30 13:42:43;;;;;;;2.90;1.60;;;14.50;50.00;;;;;;5111747;27;20509;-64
2022/12/30 13:45:24;;;;;;;3.50;1.83;;;14.30;50.60;;;;;;5106818;28;20440;-64
2022/12/30 13:47:59;;;;;;;3.33;1.90;;;14.20;51.40;;;;;;5111920;28;20434;-66
2022/12/30 13:50:29;;;;;;;3.67;1.90;;;14.00;51.70;;;;;;5107220;28;20471;-64
2022/12/30 13:52:59;;;;;;;2.73;1.90;;;13.90;52.20;;;;;;5111545;28;20952;-64
2022/12/30 13:55:30;;;;;;;5.33;3.13;;;13.80;52.80;;;;;;5111444;28;20609;-65
2022/12/30 13:58:05;;;;;;;4.20;2.30;;;13.60;53.30;;;;;;5107901;28;20442;-64
2022/12/30 14:00:38;;;;;;;4.60;1.93;;;13.50;53.80;;;;;;5111491;28;20473;-65
2022/12/30 14:03:31;;;;;;;3.37;2.20;;;13.40;54.20;;;;;;5111507;28;20434;-65
2022/12/30 14:05:59;;;;;;;13.00;4.53;;;13.30;54.40;;;;;;5110685;28;20462;-64
2022/12/30 14:08:51;;;;;;;5.30;2.50;;;13.20;55.20;;;;;;5110576;27;20982;-65
2022/12/30 14:11:19;;;;;;;4.87;2.43;;;13.20;54.90;;;;;;5107982;28;20434;-64
2022/12/30 14:14:07;;;;;;;6.03;3.03;;;13.10;55.10;;;;;;5111742;28;20442;-66
2022/12/30 14:16:51;;;;;;;8.40;2.30;;;13.00;55.40;;;;;;5111627;28;20530;-64